createdAt,value
2017-12-25T00:01:51.568Z,8.73
2017-12-25T00:04:19.022Z,7.15
2017-12-25T00:06:47.232Z,7.75
2017-12-25T00:09:14.682Z,9.27
2017-12-25T00:11:42.162Z,8.57
2017-12-25T00:14:10.388Z,10.00
2017-12-25T00:16:37.841Z,5.60
2017-12-25T00:19:06.115Z,7.10
2017-12-25T00:21:34.396Z,7.85
2017-12-25T00:26:53.233Z,6.55
2017-12-25T00:29:21.480Z,6.57
2017-12-25T00:31:49.702Z,5.70
2017-12-25T00:34:17.285Z,6.40
2017-12-25T00:36:44.832Z,5.68
2017-12-25T00:39:13.086Z,6.20
2017-12-25T00:41:41.316Z,4.82
2017-12-25T00:44:08.793Z,5.22
2017-12-25T00:46:37.047Z,6.00
2017-12-25T00:49:05.267Z,5.60
2017-12-25T00:51:32.752Z,3.78
2017-12-25T00:54:00.997Z,3.50
2017-12-25T00:56:28.447Z,4.93
2017-12-25T01:01:47.604Z,6.28
2017-12-25T01:04:15.832Z,4.10
2017-12-25T01:06:43.353Z,5.05
2017-12-25T01:09:10.952Z,4.28
2017-12-25T01:11:39.171Z,4.65
2017-12-25T01:14:06.629Z,3.90
2017-12-25T01:16:34.183Z,3.83
2017-12-25T01:19:01.662Z,7.05
2017-12-25T01:21:29.177Z,4.25
2017-12-25T01:23:57.431Z,4.15
2017-12-25T01:26:24.896Z,4.68
2017-12-25T01:28:52.417Z,5.28
2017-12-25T01:31:19.955Z,6.82
2017-12-25T01:33:47.415Z,4.30
2017-12-25T01:36:15.634Z,6.03
2017-12-25T01:38:43.208Z,6.05
2017-12-25T01:41:11.423Z,5.47
2017-12-25T01:43:38.903Z,6.62
2017-12-25T01:46:06.378Z,7.00
2017-12-25T01:48:33.890Z,6.40
2017-12-25T01:51:01.368Z,7.72
2017-12-25T01:53:28.880Z,6.85
2017-12-25T01:55:57.130Z,5.18
2017-12-25T02:01:26.127Z,5.03
2017-12-25T02:03:57.728Z,4.97
2017-12-25T02:06:37.175Z,5.85
2017-12-25T02:09:05.396Z,5.30
2017-12-25T02:11:32.884Z,6.40
2017-12-25T02:14:01.189Z,5.30
2017-12-25T02:16:28.688Z,4.47
2017-12-25T02:18:56.228Z,7.75
2017-12-25T02:21:24.483Z,6.53
2017-12-25T02:23:52.708Z,7.87
2017-12-25T02:26:20.168Z,8.60
2017-12-25T02:28:47.637Z,8.40
2017-12-25T02:31:15.856Z,6.68
2017-12-25T02:33:43.332Z,5.82
2017-12-25T02:36:11.687Z,6.62
2017-12-25T02:38:39.234Z,8.50
2017-12-25T02:41:06.780Z,5.90
2017-12-25T02:43:35.004Z,7.45
2017-12-25T02:46:02.456Z,9.55
2017-12-25T02:48:29.928Z,8.20
2017-12-25T02:50:58.152Z,10.10
2017-12-25T02:53:25.629Z,9.70
2017-12-25T02:55:53.857Z,12.05
2017-12-25T02:58:21.325Z,10.05
2017-12-25T03:00:48.780Z,8.75
2017-12-25T03:03:17.007Z,8.77
2017-12-25T03:05:44.492Z,9.77
2017-12-25T03:08:11.947Z,8.27
2017-12-25T03:10:39.451Z,8.82
2017-12-25T03:13:07.716Z,8.75
2017-12-25T03:15:35.972Z,7.43
2017-12-25T03:18:04.239Z,9.73
2017-12-25T03:20:32.470Z,10.50
2017-12-25T03:22:59.932Z,12.18
2017-12-25T03:25:28.156Z,8.15
2017-12-25T03:27:55.632Z,8.93
2017-12-25T03:30:23.871Z,10.05
2017-12-25T03:32:51.329Z,9.50
2017-12-25T03:35:18.795Z,8.25
2017-12-25T03:37:46.256Z,8.45
2017-12-25T03:40:13.711Z,9.63
2017-12-25T03:42:41.167Z,9.25
2017-12-25T03:45:08.619Z,9.15
2017-12-25T03:47:36.186Z,9.88
2017-12-25T03:50:04.454Z,9.80
2017-12-25T03:52:32.707Z,12.40
2017-12-25T03:55:00.979Z,11.25
2017-12-25T03:57:29.189Z,9.82
2017-12-25T03:59:56.668Z,10.88
2017-12-25T04:02:24.589Z,10.55
2017-12-25T04:04:52.053Z,12.57
2017-12-25T04:07:19.614Z,11.77
2017-12-25T04:09:47.841Z,10.55
2017-12-25T04:12:15.304Z,10.80
2017-12-25T04:14:42.763Z,11.23
2017-12-25T04:17:10.988Z,11.23
2017-12-25T04:19:38.551Z,10.75
2017-12-25T04:22:06.780Z,12.10
2017-12-25T04:24:34.354Z,15.95
2017-12-25T04:27:01.814Z,11.55
2017-12-25T04:29:29.279Z,11.73
2017-12-25T04:31:56.753Z,11.82
2017-12-25T04:34:24.228Z,12.02
2017-12-25T04:36:52.460Z,11.80
2017-12-25T04:39:20.031Z,13.38
2017-12-25T04:41:48.252Z,11.27
2017-12-25T04:44:15.723Z,12.80
2017-12-25T04:46:43.197Z,11.63
2017-12-25T04:49:10.662Z,12.15
2017-12-25T04:51:38.157Z,10.80
2017-12-25T04:54:06.381Z,12.70
2017-12-25T04:56:33.839Z,11.85
2017-12-25T04:59:01.452Z,10.52
2017-12-25T05:01:28.912Z,11.05
2017-12-25T05:03:56.592Z,12.15
2017-12-25T05:06:24.860Z,13.05
2017-12-25T05:08:53.092Z,12.40
2017-12-25T05:11:20.565Z,11.48
2017-12-25T05:13:48.908Z,10.60
2017-12-25T05:16:16.457Z,10.43
2017-12-25T05:18:44.684Z,11.50
2017-12-25T05:21:12.171Z,9.88
2017-12-25T05:23:40.424Z,9.73
2017-12-25T05:26:08.656Z,11.85
2017-12-25T05:28:36.138Z,9.75
2017-12-25T05:31:04.355Z,9.88
2017-12-25T05:36:23.812Z,10.45
2017-12-25T05:38:51.385Z,13.05
2017-12-25T05:41:19.639Z,12.65
2017-12-25T05:43:47.109Z,8.88
2017-12-25T05:46:14.565Z,11.85
2017-12-25T05:48:42.020Z,10.80
2017-12-25T05:51:09.491Z,14.38
2017-12-25T05:53:37.050Z,10.02
2017-12-25T05:56:05.274Z,10.73
2017-12-25T05:58:32.760Z,11.52
2017-12-25T06:01:01.011Z,12.52
2017-12-25T06:03:28.471Z,12.82
2017-12-25T06:05:55.996Z,13.43
2017-12-25T06:08:24.252Z,11.07
2017-12-25T06:10:52.493Z,17.25
2017-12-25T06:13:20.260Z,13.30
2017-12-25T06:15:47.729Z,10.93
2017-12-25T06:18:15.204Z,15.68
2017-12-25T06:20:42.692Z,12.52
2017-12-25T06:23:10.925Z,11.45
2017-12-25T06:25:38.392Z,14.30
2017-12-25T06:28:06.619Z,11.93
2017-12-25T06:30:34.200Z,18.83
2017-12-25T06:33:02.428Z,12.05
2017-12-25T06:35:29.896Z,9.60
2017-12-25T06:37:58.134Z,10.63
2017-12-25T06:40:25.584Z,10.70
2017-12-25T06:42:53.244Z,10.60
2017-12-25T06:45:21.488Z,10.23
2017-12-25T06:47:49.092Z,9.15
2017-12-25T06:50:17.273Z,8.80
2017-12-25T06:52:44.752Z,8.82
2017-12-25T06:55:13.007Z,8.00
2017-12-25T06:57:41.250Z,11.02
2017-12-25T07:00:08.808Z,8.15
2017-12-25T07:02:36.352Z,9.40
2017-12-25T07:05:03.808Z,9.05
2017-12-25T07:07:32.048Z,12.68
2017-12-25T07:09:59.508Z,9.20
2017-12-25T07:12:27.760Z,12.00
2017-12-25T07:14:56.045Z,8.68
2017-12-25T07:17:23.569Z,9.80
2017-12-25T07:22:43.404Z,7.28
2017-12-25T07:25:11.807Z,8.48
2017-12-25T07:30:30.441Z,8.38
2017-12-25T07:32:57.897Z,9.48
2017-12-25T07:35:25.430Z,6.82
2017-12-25T07:40:45.499Z,8.63
2017-12-25T07:43:13.007Z,10.07
2017-12-25T07:45:40.451Z,12.90
2017-12-25T07:48:08.684Z,9.00
2017-12-25T07:50:36.137Z,8.40
2017-12-25T07:53:03.688Z,8.35
2017-12-25T07:55:31.232Z,7.22
2017-12-25T07:57:58.832Z,11.48
2017-12-25T08:03:16.884Z,9.52
2017-12-25T08:05:44.345Z,8.32
2017-12-25T08:08:12.608Z,10.90
2017-12-25T08:10:40.872Z,7.95
2017-12-25T08:13:09.092Z,7.70
2017-12-25T08:15:36.565Z,9.13
2017-12-25T08:18:04.890Z,8.38
2017-12-25T08:20:32.348Z,7.70
2017-12-25T08:22:59.816Z,8.45
2017-12-25T08:25:30.174Z,9.65
2017-12-25T08:30:48.652Z,10.18
2017-12-25T08:33:16.112Z,7.57
2017-12-25T08:35:44.410Z,9.15
2017-12-25T08:38:11.895Z,8.40
2017-12-25T08:40:39.440Z,8.55
2017-12-25T08:45:58.400Z,7.75
2017-12-25T08:48:25.887Z,6.97
2017-12-25T08:50:53.428Z,7.53
2017-12-25T08:53:21.691Z,7.37
2017-12-25T08:55:49.935Z,7.10
2017-12-25T08:58:18.172Z,6.22
2017-12-25T09:00:45.621Z,6.60
2017-12-25T09:03:13.205Z,6.72
2017-12-25T09:05:41.462Z,7.60
2017-12-25T09:08:08.913Z,6.82
2017-12-25T09:10:37.132Z,5.35
2017-12-25T09:13:04.584Z,7.40
2017-12-25T09:15:32.047Z,5.60
2017-12-25T09:18:00.268Z,6.10
2017-12-25T09:20:27.846Z,5.97
2017-12-25T09:22:56.072Z,4.85
2017-12-25T09:25:23.548Z,7.35
2017-12-25T09:27:51.767Z,7.25
2017-12-25T09:30:19.242Z,5.28
2017-12-25T09:32:46.709Z,5.30
2017-12-25T09:35:14.950Z,5.93
2017-12-25T09:37:42.435Z,6.05
2017-12-25T09:40:09.940Z,5.05
2017-12-25T09:42:38.151Z,4.35
2017-12-25T09:45:05.640Z,4.72
2017-12-25T09:47:33.898Z,6.10
2017-12-25T09:50:02.141Z,5.12
2017-12-25T09:52:29.607Z,5.82
2017-12-25T09:54:57.840Z,4.93
2017-12-25T09:57:25.301Z,4.95
2017-12-25T09:59:52.761Z,6.35
2017-12-25T10:02:20.280Z,7.22
2017-12-25T10:04:47.825Z,5.85
2017-12-25T10:07:16.192Z,7.22
2017-12-25T10:09:44.467Z,6.93
2017-12-25T10:12:12.690Z,6.22
2017-12-25T10:14:40.156Z,5.43
2017-12-25T10:17:08.413Z,6.70
2017-12-25T10:19:36.632Z,6.57
2017-12-25T10:22:04.092Z,5.95
2017-12-25T10:24:31.569Z,6.22
2017-12-25T10:26:59.790Z,6.55
2017-12-25T10:29:27.244Z,5.30
2017-12-25T10:31:55.520Z,6.60
2017-12-25T10:34:23.778Z,5.00
2017-12-25T10:36:52.032Z,6.28
2017-12-25T10:39:19.504Z,6.68
2017-12-25T10:41:46.958Z,6.65
2017-12-25T10:44:14.425Z,5.70
2017-12-25T10:46:41.872Z,5.50
2017-12-25T10:49:09.325Z,5.70
2017-12-25T10:51:36.794Z,4.93
2017-12-25T10:54:05.049Z,5.32
2017-12-25T10:56:33.304Z,5.45
2017-12-25T10:59:01.553Z,6.53
2017-12-25T11:01:29.768Z,4.87
2017-12-25T11:03:57.272Z,4.97
2017-12-25T11:06:25.493Z,5.10
2017-12-25T11:08:52.944Z,6.90
2017-12-25T11:11:20.516Z,4.62
2017-12-25T11:13:48.772Z,8.38
2017-12-25T11:16:16.988Z,4.95
2017-12-25T11:18:44.480Z,4.25
2017-12-25T11:21:12.698Z,4.55
2017-12-25T11:23:40.169Z,4.60
2017-12-25T11:26:07.723Z,3.65
2017-12-25T11:28:35.958Z,4.87
2017-12-25T11:31:03.408Z,4.20
2017-12-25T11:33:30.963Z,5.53
2017-12-25T11:35:59.187Z,5.68
2017-12-25T11:38:26.661Z,5.32
2017-12-25T11:40:54.122Z,5.15
2017-12-25T11:43:22.674Z,4.65
2017-12-25T11:45:50.892Z,5.40
2017-12-25T11:48:18.381Z,5.15
2017-12-25T11:50:46.616Z,6.35
2017-12-25T11:53:14.093Z,5.30
2017-12-25T11:55:42.327Z,5.75
2017-12-25T11:58:09.782Z,5.25
2017-12-25T12:00:38.004Z,4.35
2017-12-25T12:03:05.486Z,5.03
2017-12-25T12:05:33.712Z,4.57
2017-12-25T12:08:01.183Z,4.95
2017-12-25T12:10:29.429Z,4.62
2017-12-25T12:12:56.980Z,4.20
2017-12-25T12:15:24.439Z,5.07
2017-12-25T12:17:52.678Z,5.07
2017-12-25T12:23:11.628Z,4.20
2017-12-25T12:25:39.171Z,4.10
2017-12-25T12:28:07.433Z,4.37
2017-12-25T12:30:35.710Z,6.45
2017-12-25T12:33:03.977Z,4.15
2017-12-25T12:35:31.492Z,4.47
2017-12-25T12:37:58.944Z,5.87
2017-12-25T12:40:27.196Z,4.70
2017-12-25T12:42:55.456Z,4.62
2017-12-25T12:45:23.692Z,6.00
2017-12-25T12:47:51.264Z,6.93
2017-12-25T12:50:19.484Z,7.87
2017-12-25T12:52:46.966Z,8.93
2017-12-25T12:55:14.520Z,6.10
2017-12-25T12:57:42.778Z,6.00
2017-12-25T13:00:11.009Z,5.18
2017-12-25T13:02:38.576Z,6.20
2017-12-25T13:05:06.799Z,4.90
2017-12-25T13:07:34.268Z,4.95
2017-12-25T13:10:01.868Z,6.25
2017-12-25T13:12:29.355Z,7.07
2017-12-25T13:14:57.593Z,6.60
2017-12-25T13:17:25.095Z,6.10
2017-12-25T13:19:52.607Z,5.12
2017-12-25T13:22:20.864Z,7.35
2017-12-25T13:24:49.175Z,4.43
2017-12-25T13:27:16.644Z,3.95
2017-12-25T13:29:44.101Z,3.90
2017-12-25T13:32:11.556Z,4.30
2017-12-25T13:34:39.816Z,4.68
2017-12-25T13:37:08.069Z,3.55
2017-12-25T13:39:35.624Z,3.30
2017-12-25T13:42:03.845Z,3.53
2017-12-25T13:44:31.428Z,4.18
2017-12-25T13:46:59.685Z,3.40
2017-12-25T13:49:27.943Z,4.00
2017-12-25T13:51:56.163Z,3.33
2017-12-25T13:54:23.620Z,2.60
2017-12-25T13:56:51.081Z,3.10
2017-12-25T13:59:19.343Z,3.35
2017-12-25T14:01:46.797Z,2.45
2017-12-25T14:04:15.016Z,3.30
2017-12-25T14:06:42.613Z,3.08
2017-12-25T14:09:10.078Z,4.72
2017-12-25T14:11:37.546Z,4.20
2017-12-25T14:14:05.008Z,5.35
2017-12-25T14:16:32.547Z,5.62
2017-12-25T14:19:00.031Z,5.70
2017-12-25T14:21:27.480Z,4.57
2017-12-25T14:23:54.984Z,5.70
2017-12-25T14:26:23.212Z,5.37
2017-12-25T14:28:50.687Z,5.28
2017-12-25T14:31:18.940Z,4.60
2017-12-25T14:33:46.484Z,5.53
2017-12-25T14:36:13.937Z,4.65
2017-12-25T14:38:42.180Z,4.40
2017-12-25T14:41:09.732Z,5.12
2017-12-25T14:43:37.988Z,3.75
2017-12-25T14:46:06.247Z,3.92
2017-12-25T14:48:34.470Z,4.03
2017-12-25T14:51:01.949Z,3.20
2017-12-25T14:53:30.316Z,3.17
2017-12-25T14:55:58.627Z,2.95
2017-12-25T14:58:26.075Z,3.37
2017-12-25T15:00:53.561Z,4.90
2017-12-25T15:03:21.785Z,2.85
2017-12-25T15:05:49.240Z,4.03
2017-12-25T15:08:16.800Z,6.55
2017-12-25T15:10:44.265Z,4.20
2017-12-25T15:13:12.488Z,6.00
2017-12-25T15:15:39.940Z,4.20
2017-12-25T15:18:07.484Z,3.30
2017-12-25T15:20:34.943Z,3.47
2017-12-25T15:23:03.163Z,3.45
2017-12-25T15:25:30.648Z,3.25
2017-12-25T15:27:58.891Z,3.45
2017-12-25T15:30:26.343Z,3.15
2017-12-25T15:32:54.597Z,4.50
2017-12-25T15:35:22.852Z,3.80
2017-12-25T15:37:51.101Z,4.75
2017-12-25T15:40:20.068Z,3.30
2017-12-25T15:42:47.540Z,3.55
2017-12-25T15:45:15.843Z,5.20
2017-12-25T15:47:44.024Z,3.95
2017-12-25T15:53:02.626Z,4.28
2017-12-25T15:55:30.077Z,4.85
2017-12-25T15:57:57.536Z,4.30
2017-12-25T16:00:25.113Z,3.85
2017-12-25T16:02:53.372Z,3.70
2017-12-25T16:05:21.593Z,4.57
2017-12-25T16:07:49.089Z,4.35
2017-12-25T16:10:17.321Z,4.60
2017-12-25T16:12:44.768Z,4.55
2017-12-25T16:15:12.231Z,9.95
2017-12-25T16:17:40.487Z,5.03
2017-12-25T16:20:08.708Z,5.15
2017-12-25T16:22:36.188Z,4.95
2017-12-25T16:25:04.444Z,5.15
2017-12-25T16:27:32.700Z,4.70
2017-12-25T16:30:00.947Z,4.85
2017-12-25T16:32:28.506Z,4.95
2017-12-25T16:34:56.733Z,5.45
2017-12-25T16:37:24.210Z,6.22
2017-12-25T16:39:52.509Z,4.75
2017-12-25T16:42:20.016Z,5.40
2017-12-25T16:44:48.252Z,3.55
2017-12-25T16:47:15.718Z,4.60
2017-12-25T16:49:43.967Z,5.07
2017-12-25T16:52:11.425Z,4.45
2017-12-25T16:54:39.689Z,4.62
2017-12-25T16:57:08.033Z,3.80
2017-12-25T16:59:36.316Z,4.20
2017-12-25T17:02:04.534Z,5.00
2017-12-25T17:04:32.097Z,4.75
2017-12-25T17:07:01.084Z,5.07
2017-12-25T17:09:29.341Z,11.18
2017-12-25T17:11:57.600Z,13.68
2017-12-25T17:14:25.858Z,14.52
2017-12-25T17:16:54.117Z,10.30
2017-12-25T17:19:22.376Z,9.77
2017-12-25T17:21:50.634Z,7.12
2017-12-25T17:24:18.856Z,4.55
2017-12-25T17:26:46.322Z,3.28
2017-12-25T17:29:13.893Z,34.40
2017-12-25T17:31:42.249Z,4.43
2017-12-25T17:34:10.468Z,3.53
2017-12-25T17:36:37.951Z,2.47
2017-12-25T17:39:06.209Z,3.22
2017-12-25T17:41:34.474Z,2.70
2017-12-25T17:44:02.772Z,3.35
2017-12-25T17:46:30.232Z,3.10
2017-12-25T17:48:57.680Z,3.35
2017-12-25T17:51:25.147Z,3.58
2017-12-25T17:53:52.653Z,3.40
2017-12-25T17:56:20.145Z,3.15
2017-12-25T17:58:47.680Z,4.18
2017-12-25T18:01:15.946Z,3.40
2017-12-25T18:03:44.172Z,3.65
2017-12-25T18:06:11.640Z,5.82
2017-12-25T18:08:39.239Z,4.20
2017-12-25T18:11:06.696Z,5.43
2017-12-25T18:13:34.163Z,3.80
2017-12-25T18:16:01.849Z,5.25
2017-12-25T18:18:29.355Z,4.32
2017-12-25T18:20:56.852Z,4.05
2017-12-25T18:23:24.348Z,4.00
2017-12-25T18:25:52.711Z,4.28
2017-12-25T18:28:20.928Z,4.90
2017-12-25T18:30:48.421Z,6.20
2017-12-25T18:33:16.642Z,4.28
2017-12-25T18:35:44.123Z,3.37
2017-12-25T18:38:12.369Z,3.70
2017-12-25T18:40:39.935Z,4.43
2017-12-25T18:43:08.295Z,4.25
2017-12-25T18:45:36.517Z,4.05
2017-12-25T18:48:04.078Z,6.03
2017-12-25T18:50:31.550Z,4.68
2017-12-25T18:52:59.009Z,4.65
2017-12-25T18:55:26.473Z,4.03
2017-12-25T18:57:53.944Z,4.53
2017-12-25T19:00:22.207Z,4.80
2017-12-25T19:02:52.361Z,4.05
2017-12-25T19:05:19.869Z,4.90
2017-12-25T19:07:48.101Z,3.97
2017-12-25T19:10:15.576Z,4.35
2017-12-25T19:12:43.031Z,5.10
2017-12-25T19:15:10.540Z,5.47
2017-12-25T19:17:38.904Z,5.82
2017-12-25T19:20:07.124Z,6.65
2017-12-25T19:22:34.592Z,4.75
2017-12-25T19:25:02.097Z,5.45
2017-12-25T19:27:29.565Z,6.18
2017-12-25T19:32:46.975Z,5.53
2017-12-25T19:35:14.436Z,5.70
2017-12-25T19:37:41.985Z,5.25
2017-12-25T19:40:10.240Z,4.75
2017-12-25T19:42:38.460Z,5.28
2017-12-25T19:45:05.921Z,6.90
2017-12-25T19:47:33.408Z,7.68
2017-12-25T19:50:00.929Z,5.65
2017-12-25T19:52:29.189Z,7.07
2017-12-25T19:54:57.448Z,6.43
2017-12-25T19:57:25.685Z,6.30
2017-12-25T19:59:53.141Z,6.00
2017-12-25T20:02:20.600Z,6.45
2017-12-25T20:04:48.852Z,7.75
2017-12-25T20:07:17.097Z,7.30
2017-12-25T20:09:44.552Z,5.75
2017-12-25T20:12:12.020Z,7.85
2017-12-25T20:14:39.539Z,9.93
2017-12-25T20:17:06.957Z,7.37
2017-12-25T20:19:34.429Z,7.12
2017-12-25T20:22:02.660Z,7.43
2017-12-25T20:24:30.275Z,6.30
2017-12-25T20:26:57.764Z,7.22
2017-12-25T20:29:26.029Z,7.00
2017-12-25T20:31:54.982Z,7.50
2017-12-25T20:34:22.553Z,7.55
2017-12-25T20:36:50.776Z,6.85
2017-12-25T20:39:18.282Z,6.20
2017-12-25T20:41:45.800Z,5.75
2017-12-25T20:44:13.269Z,6.22
2017-12-25T20:46:40.779Z,5.97
2017-12-25T20:49:09.000Z,6.25
2017-12-25T20:51:36.519Z,5.75
2017-12-25T20:54:04.025Z,5.32
2017-12-25T20:56:32.245Z,6.07
2017-12-25T20:58:59.701Z,5.18
2017-12-25T21:01:27.264Z,5.95
2017-12-25T21:03:55.475Z,5.20
2017-12-25T21:06:22.940Z,4.80
2017-12-25T21:08:50.507Z,5.10
2017-12-25T21:11:18.732Z,5.12
2017-12-25T21:13:46.234Z,4.57
2017-12-25T21:16:14.463Z,4.60
2017-12-25T21:18:41.927Z,4.70
2017-12-25T21:21:10.152Z,5.22
2017-12-25T21:23:37.630Z,4.28
2017-12-25T21:26:05.875Z,6.00
2017-12-25T21:28:33.331Z,4.60
2017-12-25T21:31:01.589Z,4.37
2017-12-25T21:33:29.804Z,5.93
2017-12-25T21:35:57.276Z,3.72
2017-12-25T21:38:25.491Z,4.78
2017-12-25T21:40:53.005Z,4.45
2017-12-25T21:43:20.512Z,4.93
2017-12-25T21:45:48.085Z,6.87
2017-12-25T21:48:16.324Z,4.90
2017-12-25T21:50:43.791Z,4.78
2017-12-25T21:53:11.313Z,5.20
2017-12-25T21:55:39.575Z,5.12
2017-12-25T21:58:07.823Z,4.40
2017-12-25T22:00:35.322Z,5.78
2017-12-25T22:03:02.959Z,5.60
2017-12-25T22:05:30.411Z,6.00
2017-12-25T22:07:57.911Z,5.10
2017-12-25T22:10:26.184Z,8.30
2017-12-25T22:12:54.420Z,6.07
2017-12-25T22:15:21.883Z,7.80
2017-12-25T22:17:50.112Z,5.97
2017-12-25T22:20:17.643Z,7.00
2017-12-25T22:22:45.114Z,7.43
2017-12-25T22:25:13.369Z,5.68
2017-12-25T22:27:41.596Z,5.28
2017-12-25T22:30:09.048Z,7.90
2017-12-25T22:32:36.531Z,6.72
2017-12-25T22:35:04.763Z,6.22
2017-12-25T22:37:32.220Z,6.20
2017-12-25T22:40:00.449Z,7.05
2017-12-25T22:42:27.912Z,6.85
2017-12-25T22:44:56.171Z,7.05
2017-12-25T22:47:23.631Z,7.62
2017-12-25T22:49:51.937Z,7.90
2017-12-25T22:52:19.518Z,6.60
2017-12-25T22:54:47.169Z,9.57
2017-12-25T22:57:15.432Z,7.55
2017-12-25T22:59:43.653Z,12.07
2017-12-25T23:02:11.130Z,8.80
2017-12-25T23:04:39.365Z,7.72
2017-12-25T23:07:06.881Z,8.63
2017-12-25T23:09:34.333Z,8.52
2017-12-25T23:12:01.786Z,9.10
2017-12-25T23:14:29.244Z,8.95
2017-12-25T23:16:56.712Z,7.82
2017-12-25T23:19:24.935Z,11.63
2017-12-25T23:21:52.397Z,9.90
2017-12-25T23:24:19.941Z,8.57
2017-12-25T23:26:47.404Z,8.00
2017-12-25T23:29:15.654Z,11.70
2017-12-25T23:31:43.911Z,8.93
2017-12-25T23:34:12.164Z,9.82
2017-12-25T23:36:40.424Z,10.70
2017-12-25T23:39:07.901Z,10.20
2017-12-25T23:41:35.355Z,8.85
2017-12-25T23:44:02.816Z,10.05
2017-12-25T23:46:30.288Z,8.13
2017-12-25T23:48:57.836Z,10.80
2017-12-25T23:51:26.098Z,10.65
2017-12-25T23:53:54.358Z,12.10
2017-12-25T23:56:22.607Z,7.82
2017-12-25T23:58:50.163Z,11.52
